sensor_id;sensor_type;location;lat;lon;timestamp;temperature;humidity
3644;DHT22;1838;50.742;7.158;2023-07-22T00:00:26;14.40;99.90
3644;DHT22;1838;50.742;7.158;2023-07-22T00:02:52;14.30;99.90
3644;DHT22;1838;50.742;7.158;2023-07-22T00:05:17;14.30;99.90
3644;DHT22;1838;50.742;7.158;2023-07-22T00:07:51;14.20;99.90
3644;DHT22;1838;50.742;7.158;2023-07-22T00:10:16;14.20;99.90
3644;DHT22;1838;50.742;7.158;2023-07-22T00:12:42;14.20;99.90
3644;DHT22;1838;50.742;7.158;2023-07-22T00:15:08;14.20;99.90
3644;DHT22;1838;50.742;7.158;2023-07-22T00:17:37;14.20;99.90
3644;DHT22;1838;50.742;7.158;2023-07-22T00:20:03;14.20;99.90
3644;DHT22;1838;50.742;7.158;2023-07-22T00:22:30;14.30;99.90
3644;DHT22;1838;50.742;7.158;2023-07-22T00:24:55;14.40;99.90
3644;DHT22;1838;50.742;7.158;2023-07-22T00:27:21;14.30;99.90
3644;DHT22;1838;50.742;7.158;2023-07-22T00:29:46;14.40;99.90
3644;DHT22;1838;50.742;7.158;2023-07-22T00:32:11;14.40;99.90
3644;DHT22;1838;50.742;7.158;2023-07-22T00:34:38;14.40;99.90
3644;DHT22;1838;50.742;7.158;2023-07-22T00:37:03;14.40;99.90
3644;DHT22;1838;50.742;7.158;2023-07-22T00:39:29;14.50;99.90
3644;DHT22;1838;50.742;7.158;2023-07-22T00:41:54;14.50;99.90
3644;DHT22;1838;50.742;7.158;2023-07-22T00:44:20;14.40;99.90
3644;DHT22;1838;50.742;7.158;2023-07-22T00:46:45;14.40;99.90
3644;DHT22;1838;50.742;7.158;2023-07-22T00:49:11;14.50;99.90
3644;DHT22;1838;50.742;7.158;2023-07-22T00:51:38;14.50;99.90
3644;DHT22;1838;50.742;7.158;2023-07-22T00:54:03;14.40;99.90
3644;DHT22;1838;50.742;7.158;2023-07-22T00:56:33;14.30;99.90
3644;DHT22;1838;50.742;7.158;2023-07-22T00:59:01;14.40;99.90
3644;DHT22;1838;50.742;7.158;2023-07-22T01:01:26;14.40;99.90
3644;DHT22;1838;50.742;7.158;2023-07-22T01:03:52;14.40;99.90
3644;DHT22;1838;50.742;7.158;2023-07-22T01:06:17;14.40;99.90
3644;DHT22;1838;50.742;7.158;2023-07-22T01:08:43;14.30;99.90
3644;DHT22;1838;50.742;7.158;2023-07-22T01:11:09;14.30;99.90
3644;DHT22;1838;50.742;7.158;2023-07-22T01:13:34;14.30;99.90
3644;DHT22;1838;50.742;7.158;2023-07-22T01:16:00;14.30;99.90
3644;DHT22;1838;50.742;7.158;2023-07-22T01:18:26;14.30;99.90
3644;DHT22;1838;50.742;7.158;2023-07-22T01:20:51;14.30;99.90
3644;DHT22;1838;50.742;7.158;2023-07-22T01:23:17;14.20;99.90
3644;DHT22;1838;50.742;7.158;2023-07-22T01:25:44;14.10;99.90
3644;DHT22;1838;50.742;7.158;2023-07-22T01:28:10;14.00;99.90
3644;DHT22;1838;50.742;7.158;2023-07-22T01:30:36;13.90;99.90
3644;DHT22;1838;50.742;7.158;2023-07-22T01:33:02;13.90;99.90
3644;DHT22;1838;50.742;7.158;2023-07-22T01:35:27;13.90;99.90
3644;DHT22;1838;50.742;7.158;2023-07-22T01:37:53;13.80;99.90
3644;DHT22;1838;50.742;7.158;2023-07-22T01:40:19;13.80;99.90
3644;DHT22;1838;50.742;7.158;2023-07-22T01:42:45;13.80;99.90
3644;DHT22;1838;50.742;7.158;2023-07-22T01:45:10;13.80;99.90
3644;DHT22;1838;50.742;7.158;2023-07-22T01:47:37;13.80;99.90
3644;DHT22;1838;50.742;7.158;2023-07-22T01:50:04;13.80;99.90
3644;DHT22;1838;50.742;7.158;2023-07-22T01:52:31;13.80;99.90
3644;DHT22;1838;50.742;7.158;2023-07-22T01:54:57;13.80;99.90
3644;DHT22;1838;50.742;7.158;2023-07-22T01:57:22;13.80;99.90
3644;DHT22;1838;50.742;7.158;2023-07-22T01:59:48;13.80;99.90
3644;DHT22;1838;50.742;7.158;2023-07-22T02:02:14;13.80;99.90
3644;DHT22;1838;50.742;7.158;2023-07-22T02:04:40;13.80;99.90
3644;DHT22;1838;50.742;7.158;2023-07-22T02:07:05;13.80;99.90
3644;DHT22;1838;50.742;7.158;2023-07-22T02:09:32;13.90;99.90
3644;DHT22;1838;50.742;7.158;2023-07-22T02:11:58;13.80;99.90
3644;DHT22;1838;50.742;7.158;2023-07-22T02:14:24;13.80;99.90
3644;DHT22;1838;50.742;7.158;2023-07-22T02:16:49;13.70;99.90
3644;DHT22;1838;50.742;7.158;2023-07-22T02:19:15;13.80;99.90
3644;DHT22;1838;50.742;7.158;2023-07-22T02:21:41;13.70;99.90
3644;DHT22;1838;50.742;7.158;2023-07-22T02:24:07;13.70;99.90
3644;DHT22;1838;50.742;7.158;2023-07-22T02:26:33;13.70;99.90
3644;DHT22;1838;50.742;7.158;2023-07-22T02:28:59;13.60;99.90
3644;DHT22;1838;50.742;7.158;2023-07-22T02:31:24;13.60;99.90
3644;DHT22;1838;50.742;7.158;2023-07-22T02:33:50;13.60;99.90
3644;DHT22;1838;50.742;7.158;2023-07-22T02:36:16;13.60;99.90
3644;DHT22;1838;50.742;7.158;2023-07-22T02:38:42;13.60;99.90
3644;DHT22;1838;50.742;7.158;2023-07-22T02:41:07;13.60;99.90
3644;DHT22;1838;50.742;7.158;2023-07-22T02:43:34;13.60;99.90
3644;DHT22;1838;50.742;7.158;2023-07-22T02:46:04;13.60;99.90
3644;DHT22;1838;50.742;7.158;2023-07-22T02:48:32;13.60;99.90
3644;DHT22;1838;50.742;7.158;2023-07-22T02:51:05;13.60;99.90
3644;DHT22;1838;50.742;7.158;2023-07-22T02:53:32;13.60;99.90
3644;DHT22;1838;50.742;7.158;2023-07-22T02:55:58;13.60;99.90
3644;DHT22;1838;50.742;7.158;2023-07-22T02:58:24;13.60;99.90
3644;DHT22;1838;50.742;7.158;2023-07-22T03:00:50;13.60;99.90
3644;DHT22;1838;50.742;7.158;2023-07-22T03:03:15;13.60;99.90
3644;DHT22;1838;50.742;7.158;2023-07-22T03:05:41;13.70;99.90
3644;DHT22;1838;50.742;7.158;2023-07-22T03:08:06;13.60;99.90
3644;DHT22;1838;50.742;7.158;2023-07-22T03:10:32;13.60;99.90
3644;DHT22;1838;50.742;7.158;2023-07-22T03:12:58;13.60;99.90
3644;DHT22;1838;50.742;7.158;2023-07-22T03:15:25;13.60;99.90
3644;DHT22;1838;50.742;7.158;2023-07-22T03:17:51;13.50;99.90
3644;DHT22;1838;50.742;7.158;2023-07-22T03:20:17;13.50;99.90
3644;DHT22;1838;50.742;7.158;2023-07-22T03:22:45;13.50;99.90
3644;DHT22;1838;50.742;7.158;2023-07-22T03:25:12;13.50;99.90
3644;DHT22;1838;50.742;7.158;2023-07-22T03:27:38;13.50;99.90
3644;DHT22;1838;50.742;7.158;2023-07-22T03:30:05;13.50;99.90
3644;DHT22;1838;50.742;7.158;2023-07-22T03:32:36;13.50;99.90
3644;DHT22;1838;50.742;7.158;2023-07-22T03:35:01;13.50;99.90
3644;DHT22;1838;50.742;7.158;2023-07-22T03:37:27;13.60;99.90
3644;DHT22;1838;50.742;7.158;2023-07-22T03:39:53;13.60;99.90
3644;DHT22;1838;50.742;7.158;2023-07-22T03:42:18;13.60;99.90
3644;DHT22;1838;50.742;7.158;2023-07-22T03:44:44;13.60;99.90
3644;DHT22;1838;50.742;7.158;2023-07-22T03:47:09;13.50;99.90
3644;DHT22;1838;50.742;7.158;2023-07-22T03:49:35;13.50;99.90
3644;DHT22;1838;50.742;7.158;2023-07-22T03:52:00;13.50;99.90
3644;DHT22;1838;50.742;7.158;2023-07-22T03:54:26;13.50;99.90
3644;DHT22;1838;50.742;7.158;2023-07-22T03:56:52;13.50;99.90
3644;DHT22;1838;50.742;7.158;2023-07-22T03:59:17;13.50;99.90
3644;DHT22;1838;50.742;7.158;2023-07-22T04:01:43;13.50;99.90
3644;DHT22;1838;50.742;7.158;2023-07-22T04:04:08;13.50;99.90
3644;DHT22;1838;50.742;7.158;2023-07-22T04:06:34;13.50;99.90
3644;DHT22;1838;50.742;7.158;2023-07-22T04:09:00;13.50;99.90
3644;DHT22;1838;50.742;7.158;2023-07-22T04:11:26;13.50;99.90
3644;DHT22;1838;50.742;7.158;2023-07-22T04:13:52;13.50;99.90
3644;DHT22;1838;50.742;7.158;2023-07-22T04:16:17;13.50;99.90
3644;DHT22;1838;50.742;7.158;2023-07-22T04:18:43;13.50;99.90
3644;DHT22;1838;50.742;7.158;2023-07-22T04:21:08;13.50;99.90
3644;DHT22;1838;50.742;7.158;2023-07-22T04:23:34;13.50;99.90
3644;DHT22;1838;50.742;7.158;2023-07-22T04:26:02;13.50;99.90
3644;DHT22;1838;50.742;7.158;2023-07-22T04:28:30;13.50;99.90
3644;DHT22;1838;50.742;7.158;2023-07-22T04:30:57;13.50;99.90
3644;DHT22;1838;50.742;7.158;2023-07-22T04:33:24;13.50;99.90
3644;DHT22;1838;50.742;7.158;2023-07-22T04:35:50;13.50;99.90
3644;DHT22;1838;50.742;7.158;2023-07-22T04:38:16;13.50;99.90
3644;DHT22;1838;50.742;7.158;2023-07-22T04:40:44;13.50;99.90
3644;DHT22;1838;50.742;7.158;2023-07-22T04:43:10;13.60;99.90
3644;DHT22;1838;50.742;7.158;2023-07-22T04:45:35;13.60;99.90
3644;DHT22;1838;50.742;7.158;2023-07-22T04:48:02;13.70;99.90
3644;DHT22;1838;50.742;7.158;2023-07-22T04:50:28;13.70;99.90
3644;DHT22;1838;50.742;7.158;2023-07-22T04:52:54;13.80;99.90
3644;DHT22;1838;50.742;7.158;2023-07-22T04:55:20;13.80;99.90
3644;DHT22;1838;50.742;7.158;2023-07-22T04:57:45;13.90;99.90
3644;DHT22;1838;50.742;7.158;2023-07-22T05:00:12;14.00;99.90
3644;DHT22;1838;50.742;7.158;2023-07-22T05:02:45;14.10;99.90
3644;DHT22;1838;50.742;7.158;2023-07-22T05:05:13;14.10;99.90
3644;DHT22;1838;50.742;7.158;2023-07-22T05:07:39;14.10;99.90
3644;DHT22;1838;50.742;7.158;2023-07-22T05:10:06;14.10;99.90
3644;DHT22;1838;50.742;7.158;2023-07-22T05:12:32;14.10;99.90
3644;DHT22;1838;50.742;7.158;2023-07-22T05:14:58;14.00;99.90
3644;DHT22;1838;50.742;7.158;2023-07-22T05:17:23;14.00;99.90
3644;DHT22;1838;50.742;7.158;2023-07-22T05:19:50;14.10;99.90
3644;DHT22;1838;50.742;7.158;2023-07-22T05:22:16;14.30;99.90
3644;DHT22;1838;50.742;7.158;2023-07-22T05:24:43;14.50;99.90
3644;DHT22;1838;50.742;7.158;2023-07-22T05:27:08;14.80;99.90
3644;DHT22;1838;50.742;7.158;2023-07-22T05:29:34;15.00;99.90
3644;DHT22;1838;50.742;7.158;2023-07-22T05:31:59;15.10;99.90
3644;DHT22;1838;50.742;7.158;2023-07-22T05:34:25;15.20;99.90
3644;DHT22;1838;50.742;7.158;2023-07-22T05:36:50;15.50;99.90
3644;DHT22;1838;50.742;7.158;2023-07-22T05:39:16;15.80;99.90
3644;DHT22;1838;50.742;7.158;2023-07-22T05:41:43;16.00;99.90
3644;DHT22;1838;50.742;7.158;2023-07-22T05:44:09;16.20;99.90
3644;DHT22;1838;50.742;7.158;2023-07-22T05:46:34;16.30;99.90
3644;DHT22;1838;50.742;7.158;2023-07-22T05:49:00;16.50;99.90
3644;DHT22;1838;50.742;7.158;2023-07-22T05:51:26;16.60;99.90
3644;DHT22;1838;50.742;7.158;2023-07-22T05:53:51;16.70;99.90
3644;DHT22;1838;50.742;7.158;2023-07-22T05:56:17;16.90;99.90
3644;DHT22;1838;50.742;7.158;2023-07-22T05:58:43;17.00;99.90
3644;DHT22;1838;50.742;7.158;2023-07-22T06:01:08;17.00;99.90
3644;DHT22;1838;50.742;7.158;2023-07-22T06:03:34;17.10;99.90
3644;DHT22;1838;50.742;7.158;2023-07-22T06:05:59;17.20;99.90
3644;DHT22;1838;50.742;7.158;2023-07-22T06:08:25;17.50;99.90
3644;DHT22;1838;50.742;7.158;2023-07-22T06:10:51;17.70;99.90
3644;DHT22;1838;50.742;7.158;2023-07-22T06:13:17;18.00;99.90
3644;DHT22;1838;50.742;7.158;2023-07-22T06:15:42;18.10;99.90
3644;DHT22;1838;50.742;7.158;2023-07-22T06:18:08;18.30;99.90
3644;DHT22;1838;50.742;7.158;2023-07-22T06:20:34;18.30;99.90
3644;DHT22;1838;50.742;7.158;2023-07-22T06:23:01;18.30;99.90
3644;DHT22;1838;50.742;7.158;2023-07-22T06:25:27;18.30;99.90
3644;DHT22;1838;50.742;7.158;2023-07-22T06:27:52;18.30;99.90
3644;DHT22;1838;50.742;7.158;2023-07-22T06:30:19;18.20;99.90
3644;DHT22;1838;50.742;7.158;2023-07-22T06:32:45;18.30;99.90
3644;DHT22;1838;50.742;7.158;2023-07-22T06:35:10;18.20;99.90
3644;DHT22;1838;50.742;7.158;2023-07-22T06:37:36;18.10;99.90
3644;DHT22;1838;50.742;7.158;2023-07-22T06:40:01;18.20;99.90
3644;DHT22;1838;50.742;7.158;2023-07-22T06:42:27;18.20;99.90
3644;DHT22;1838;50.742;7.158;2023-07-22T06:44:53;18.20;99.90
3644;DHT22;1838;50.742;7.158;2023-07-22T06:47:18;18.30;99.90
3644;DHT22;1838;50.742;7.158;2023-07-22T06:49:44;18.40;99.90
3644;DHT22;1838;50.742;7.158;2023-07-22T06:52:09;18.60;99.90
3644;DHT22;1838;50.742;7.158;2023-07-22T06:54:35;18.60;99.90
3644;DHT22;1838;50.742;7.158;2023-07-22T06:57:01;18.90;99.90
3644;DHT22;1838;50.742;7.158;2023-07-22T06:59:26;19.30;99.90
3644;DHT22;1838;50.742;7.158;2023-07-22T07:01:52;19.50;99.90
3644;DHT22;1838;50.742;7.158;2023-07-22T07:04:18;19.70;99.90
3644;DHT22;1838;50.742;7.158;2023-07-22T07:06:43;19.90;99.90
3644;DHT22;1838;50.742;7.158;2023-07-22T07:09:11;20.10;99.90
3644;DHT22;1838;50.742;7.158;2023-07-22T07:11:36;20.50;99.90
3644;DHT22;1838;50.742;7.158;2023-07-22T07:14:02;21.10;99.90
3644;DHT22;1838;50.742;7.158;2023-07-22T07:16:30;21.70;99.90
3644;DHT22;1838;50.742;7.158;2023-07-22T07:18:57;22.10;99.90
3644;DHT22;1838;50.742;7.158;2023-07-22T07:21:23;22.50;99.90
3644;DHT22;1838;50.742;7.158;2023-07-22T07:23:49;22.90;99.90
3644;DHT22;1838;50.742;7.158;2023-07-22T07:26:15;23.00;99.90
3644;DHT22;1838;50.742;7.158;2023-07-22T07:28:41;23.10;99.90
3644;DHT22;1838;50.742;7.158;2023-07-22T07:31:06;23.40;99.90
3644;DHT22;1838;50.742;7.158;2023-07-22T07:33:33;23.70;99.90
3644;DHT22;1838;50.742;7.158;2023-07-22T07:35:59;24.20;99.90
3644;DHT22;1838;50.742;7.158;2023-07-22T07:38:25;24.70;99.90
3644;DHT22;1838;50.742;7.158;2023-07-22T07:40:56;25.10;99.90
3644;DHT22;1838;50.742;7.158;2023-07-22T07:43:22;25.20;99.70
3644;DHT22;1838;50.742;7.158;2023-07-22T07:45:48;25.20;98.60
3644;DHT22;1838;50.742;7.158;2023-07-22T07:48:13;25.20;99.80
3644;DHT22;1838;50.742;7.158;2023-07-22T07:50:39;25.30;96.60
3644;DHT22;1838;50.742;7.158;2023-07-22T07:53:04;25.30;98.60
3644;DHT22;1838;50.742;7.158;2023-07-22T07:55:30;25.40;98.60
3644;DHT22;1838;50.742;7.158;2023-07-22T07:57:55;25.50;96.90
3644;DHT22;1838;50.742;7.158;2023-07-22T08:00:21;25.40;96.50
3644;DHT22;1838;50.742;7.158;2023-07-22T08:02:47;25.50;97.20
3644;DHT22;1838;50.742;7.158;2023-07-22T08:05:12;25.90;97.80
3644;DHT22;1838;50.742;7.158;2023-07-22T08:07:38;26.10;94.10
3644;DHT22;1838;50.742;7.158;2023-07-22T08:10:05;26.40;93.50
3644;DHT22;1838;50.742;7.158;2023-07-22T08:12:32;26.70;93.90
3644;DHT22;1838;50.742;7.158;2023-07-22T08:14:58;27.00;91.30
3644;DHT22;1838;50.742;7.158;2023-07-22T08:17:24;27.20;90.60
3644;DHT22;1838;50.742;7.158;2023-07-22T08:19:49;27.50;87.80
3644;DHT22;1838;50.742;7.158;2023-07-22T08:22:15;27.70;87.80
3644;DHT22;1838;50.742;7.158;2023-07-22T08:24:41;27.50;81.00
3644;DHT22;1838;50.742;7.158;2023-07-22T08:27:06;27.10;80.70
3644;DHT22;1838;50.742;7.158;2023-07-22T08:29:32;26.90;80.20
3644;DHT22;1838;50.742;7.158;2023-07-22T08:31:58;26.40;80.30
3644;DHT22;1838;50.742;7.158;2023-07-22T08:34:23;26.20;81.50
3644;DHT22;1838;50.742;7.158;2023-07-22T08:36:49;26.00;85.00
3644;DHT22;1838;50.742;7.158;2023-07-22T08:39:14;26.00;85.20
3644;DHT22;1838;50.742;7.158;2023-07-22T08:41:40;25.70;83.60
3644;DHT22;1838;50.742;7.158;2023-07-22T08:44:10;25.70;84.30
3644;DHT22;1838;50.742;7.158;2023-07-22T08:46:39;25.60;88.60
3644;DHT22;1838;50.742;7.158;2023-07-22T08:49:07;25.80;90.00
3644;DHT22;1838;50.742;7.158;2023-07-22T08:51:34;25.90;84.40
3644;DHT22;1838;50.742;7.158;2023-07-22T08:54:02;26.10;82.60
3644;DHT22;1838;50.742;7.158;2023-07-22T08:56:28;26.20;80.40
3644;DHT22;1838;50.742;7.158;2023-07-22T08:58:55;26.00;80.40
3644;DHT22;1838;50.742;7.158;2023-07-22T09:01:21;26.20;80.90
3644;DHT22;1838;50.742;7.158;2023-07-22T09:03:48;26.20;78.10
3644;DHT22;1838;50.742;7.158;2023-07-22T09:06:18;26.10;76.90
3644;DHT22;1838;50.742;7.158;2023-07-22T09:08:44;25.90;79.20
3644;DHT22;1838;50.742;7.158;2023-07-22T09:11:11;26.10;81.30
3644;DHT22;1838;50.742;7.158;2023-07-22T09:13:36;26.30;79.60
3644;DHT22;1838;50.742;7.158;2023-07-22T09:16:05;26.40;81.00
3644;DHT22;1838;50.742;7.158;2023-07-22T09:18:33;26.60;79.20
3644;DHT22;1838;50.742;7.158;2023-07-22T09:20:58;26.70;75.80
3644;DHT22;1838;50.742;7.158;2023-07-22T09:23:34;26.60;75.60
3644;DHT22;1838;50.742;7.158;2023-07-22T09:26:17;26.40;78.10
3644;DHT22;1838;50.742;7.158;2023-07-22T09:28:53;26.40;76.80
3644;DHT22;1838;50.742;7.158;2023-07-22T09:31:24;26.50;77.20
3644;DHT22;1838;50.742;7.158;2023-07-22T09:33:50;26.70;73.60
3644;DHT22;1838;50.742;7.158;2023-07-22T09:36:16;26.90;76.60
3644;DHT22;1838;50.742;7.158;2023-07-22T09:38:42;27.10;71.20
3644;DHT22;1838;50.742;7.158;2023-07-22T09:41:07;27.20;68.10
3644;DHT22;1838;50.742;7.158;2023-07-22T09:43:38;26.90;67.50
3644;DHT22;1838;50.742;7.158;2023-07-22T09:46:08;26.90;69.60
3644;DHT22;1838;50.742;7.158;2023-07-22T09:48:41;27.00;72.50
3644;DHT22;1838;50.742;7.158;2023-07-22T09:51:12;27.30;72.00
3644;DHT22;1838;50.742;7.158;2023-07-22T09:53:44;27.60;70.30
3644;DHT22;1838;50.742;7.158;2023-07-22T09:56:09;27.80;59.40
3644;DHT22;1838;50.742;7.158;2023-07-22T09:58:35;27.90;59.70
3644;DHT22;1838;50.742;7.158;2023-07-22T10:01:02;28.00;57.80
3644;DHT22;1838;50.742;7.158;2023-07-22T10:03:29;28.10;56.80
3644;DHT22;1838;50.742;7.158;2023-07-22T10:05:59;27.80;55.60
3644;DHT22;1838;50.742;7.158;2023-07-22T10:08:26;27.50;55.90
3644;DHT22;1838;50.742;7.158;2023-07-22T10:10:56;27.10;55.60
3644;DHT22;1838;50.742;7.158;2023-07-22T10:13:24;26.70;56.50
3644;DHT22;1838;50.742;7.158;2023-07-22T10:15:49;26.70;57.20
3644;DHT22;1838;50.742;7.158;2023-07-22T10:18:15;26.80;58.90
3644;DHT22;1838;50.742;7.158;2023-07-22T10:20:42;27.10;55.10
3644;DHT22;1838;50.742;7.158;2023-07-22T10:23:07;27.50;55.10
3644;DHT22;1838;50.742;7.158;2023-07-22T10:25:34;28.00;55.40
3644;DHT22;1838;50.742;7.158;2023-07-22T10:28:00;28.50;54.90
3644;DHT22;1838;50.742;7.158;2023-07-22T10:30:26;29.00;53.20
3644;DHT22;1838;50.742;7.158;2023-07-22T10:32:52;29.50;52.60
3644;DHT22;1838;50.742;7.158;2023-07-22T10:38:09;30.30;48.60
3644;DHT22;1838;50.742;7.158;2023-07-22T10:40:46;30.10;47.50
3644;DHT22;1838;50.742;7.158;2023-07-22T10:43:12;29.80;49.00
3644;DHT22;1838;50.742;7.158;2023-07-22T10:45:42;29.60;47.10
3644;DHT22;1838;50.742;7.158;2023-07-22T10:48:09;29.70;50.30
3644;DHT22;1838;50.742;7.158;2023-07-22T10:53:29;29.90;47.80
3644;DHT22;1838;50.742;7.158;2023-07-22T10:56:16;30.20;48.90
3644;DHT22;1838;50.742;7.158;2023-07-22T11:04:06;31.00;45.40
3644;DHT22;1838;50.742;7.158;2023-07-22T11:06:33;31.20;44.80
3644;DHT22;1838;50.742;7.158;2023-07-22T11:08:59;31.30;44.00
3644;DHT22;1838;50.742;7.158;2023-07-22T11:11:38;30.80;42.80
3644;DHT22;1838;50.742;7.158;2023-07-22T11:14:18;30.80;44.80
3644;DHT22;1838;50.742;7.158;2023-07-22T11:16:47;30.70;42.00
3644;DHT22;1838;50.742;7.158;2023-07-22T11:19:17;30.90;43.50
3644;DHT22;1838;50.742;7.158;2023-07-22T11:21:46;31.10;42.60
3644;DHT22;1838;50.742;7.158;2023-07-22T11:24:12;31.30;43.40
3644;DHT22;1838;50.742;7.158;2023-07-22T11:26:39;31.60;41.50
3644;DHT22;1838;50.742;7.158;2023-07-22T11:29:06;31.80;41.10
3644;DHT22;1838;50.742;7.158;2023-07-22T11:31:33;32.00;42.10
3644;DHT22;1838;50.742;7.158;2023-07-22T11:33:59;32.20;42.80
3644;DHT22;1838;50.742;7.158;2023-07-22T11:36:26;32.30;40.50
3644;DHT22;1838;50.742;7.158;2023-07-22T11:38:52;32.20;41.20
3644;DHT22;1838;50.742;7.158;2023-07-22T11:41:18;32.40;42.60
3644;DHT22;1838;50.742;7.158;2023-07-22T11:43:43;32.50;41.20
3644;DHT22;1838;50.742;7.158;2023-07-22T11:46:09;32.60;41.30
3644;DHT22;1838;50.742;7.158;2023-07-22T11:48:35;32.40;41.70
3644;DHT22;1838;50.742;7.158;2023-07-22T11:51:01;32.00;40.90
3644;DHT22;1838;50.742;7.158;2023-07-22T11:53:27;31.80;42.80
3644;DHT22;1838;50.742;7.158;2023-07-22T11:55:56;31.80;42.10
3644;DHT22;1838;50.742;7.158;2023-07-22T11:58:28;31.30;40.50
3644;DHT22;1838;50.742;7.158;2023-07-22T12:01:07;31.00;41.50
3644;DHT22;1838;50.742;7.158;2023-07-22T12:03:35;30.10;41.40
3644;DHT22;1838;50.742;7.158;2023-07-22T12:06:05;29.70;43.30
3644;DHT22;1838;50.742;7.158;2023-07-22T12:08:31;29.70;43.20
3644;DHT22;1838;50.742;7.158;2023-07-22T12:10:58;29.90;43.20
3644;DHT22;1838;50.742;7.158;2023-07-22T12:13:23;30.20;42.90
3644;DHT22;1838;50.742;7.158;2023-07-22T12:16:03;30.00;41.40
3644;DHT22;1838;50.742;7.158;2023-07-22T12:18:41;30.10;43.20
3644;DHT22;1838;50.742;7.158;2023-07-22T12:21:07;30.40;42.90
3644;DHT22;1838;50.742;7.158;2023-07-22T12:23:33;29.90;42.80
3644;DHT22;1838;50.742;7.158;2023-07-22T12:25:59;30.10;43.10
3644;DHT22;1838;50.742;7.158;2023-07-22T12:28:24;30.40;43.20
3644;DHT22;1838;50.742;7.158;2023-07-22T12:30:49;30.40;42.30
3644;DHT22;1838;50.742;7.158;2023-07-22T12:33:15;30.60;42.70
3644;DHT22;1838;50.742;7.158;2023-07-22T12:35:40;30.70;42.20
3644;DHT22;1838;50.742;7.158;2023-07-22T12:38:06;30.90;42.10
3644;DHT22;1838;50.742;7.158;2023-07-22T12:40:31;31.00;41.20
3644;DHT22;1838;50.742;7.158;2023-07-22T12:42:57;31.10;41.00
3644;DHT22;1838;50.742;7.158;2023-07-22T12:45:23;30.90;41.10
3644;DHT22;1838;50.742;7.158;2023-07-22T12:47:48;30.90;41.60
3644;DHT22;1838;50.742;7.158;2023-07-22T12:50:14;30.70;41.00
3644;DHT22;1838;50.742;7.158;2023-07-22T12:52:39;30.90;42.60
3644;DHT22;1838;50.742;7.158;2023-07-22T12:55:05;30.70;41.10
3644;DHT22;1838;50.742;7.158;2023-07-22T12:57:31;30.80;41.30
3644;DHT22;1838;50.742;7.158;2023-07-22T12:59:56;31.00;42.00
3644;DHT22;1838;50.742;7.158;2023-07-22T13:02:22;31.20;41.60
3644;DHT22;1838;50.742;7.158;2023-07-22T13:04:48;31.30;41.50
3644;DHT22;1838;50.742;7.158;2023-07-22T13:07:13;31.50;41.30
3644;DHT22;1838;50.742;7.158;2023-07-22T13:09:39;31.60;41.70
3644;DHT22;1838;50.742;7.158;2023-07-22T13:12:05;31.70;40.40
3644;DHT22;1838;50.742;7.158;2023-07-22T13:14:31;31.50;40.60
3644;DHT22;1838;50.742;7.158;2023-07-22T13:16:57;31.50;41.70
3644;DHT22;1838;50.742;7.158;2023-07-22T13:19:22;31.60;41.50
3644;DHT22;1838;50.742;7.158;2023-07-22T13:21:48;31.70;41.20
3644;DHT22;1838;50.742;7.158;2023-07-22T13:24:13;31.70;41.70
3644;DHT22;1838;50.742;7.158;2023-07-22T13:26:39;31.50;41.40
3644;DHT22;1838;50.742;7.158;2023-07-22T13:29:05;31.60;42.50
3644;DHT22;1838;50.742;7.158;2023-07-22T13:31:30;31.50;41.50
3644;DHT22;1838;50.742;7.158;2023-07-22T13:33:56;31.70;42.00
3644;DHT22;1838;50.742;7.158;2023-07-22T13:36:21;31.80;41.70
3644;DHT22;1838;50.742;7.158;2023-07-22T13:38:47;31.70;41.20
3644;DHT22;1838;50.742;7.158;2023-07-22T13:41:12;31.70;41.00
3644;DHT22;1838;50.742;7.158;2023-07-22T13:43:37;31.80;40.40
3644;DHT22;1838;50.742;7.158;2023-07-22T13:46:03;31.80;40.70
3644;DHT22;1838;50.742;7.158;2023-07-22T13:48:28;31.80;40.40
3644;DHT22;1838;50.742;7.158;2023-07-22T13:50:54;31.10;39.80
3644;DHT22;1838;50.742;7.158;2023-07-22T13:53:20;30.70;41.00
3644;DHT22;1838;50.742;7.158;2023-07-22T13:55:45;30.20;40.30
3644;DHT22;1838;50.742;7.158;2023-07-22T13:58:10;29.80;41.00
3644;DHT22;1838;50.742;7.158;2023-07-22T14:00:36;30.00;41.50
3644;DHT22;1838;50.742;7.158;2023-07-22T14:03:02;30.20;42.20
3644;DHT22;1838;50.742;7.158;2023-07-22T14:05:28;30.40;42.60
3644;DHT22;1838;50.742;7.158;2023-07-22T14:07:53;30.50;40.70
3644;DHT22;1838;50.742;7.158;2023-07-22T14:10:19;30.40;40.80
3644;DHT22;1838;50.742;7.158;2023-07-22T14:12:44;30.50;41.50
3644;DHT22;1838;50.742;7.158;2023-07-22T14:15:10;30.60;41.20
3644;DHT22;1838;50.742;7.158;2023-07-22T14:17:35;30.60;41.30
3644;DHT22;1838;50.742;7.158;2023-07-22T14:20:03;30.80;41.80
3644;DHT22;1838;50.742;7.158;2023-07-22T14:22:30;30.90;41.30
3644;DHT22;1838;50.742;7.158;2023-07-22T14:24:56;31.00;40.80
3644;DHT22;1838;50.742;7.158;2023-07-22T14:27:21;30.90;39.90
3644;DHT22;1838;50.742;7.158;2023-07-22T14:29:47;31.00;40.30
3644;DHT22;1838;50.742;7.158;2023-07-22T14:32:12;30.90;41.00
3644;DHT22;1838;50.742;7.158;2023-07-22T14:34:38;31.00;41.70
3644;DHT22;1838;50.742;7.158;2023-07-22T14:37:03;31.10;41.20
3644;DHT22;1838;50.742;7.158;2023-07-22T14:39:30;31.20;41.10
3644;DHT22;1838;50.742;7.158;2023-07-22T14:41:55;30.90;40.90
3644;DHT22;1838;50.742;7.158;2023-07-22T14:44:21;31.00;41.20
3644;DHT22;1838;50.742;7.158;2023-07-22T14:46:46;30.60;40.80
3644;DHT22;1838;50.742;7.158;2023-07-22T14:49:12;30.70;42.20
3644;DHT22;1838;50.742;7.158;2023-07-22T14:51:38;30.20;42.30
3644;DHT22;1838;50.742;7.158;2023-07-22T14:54:03;30.50;42.50
3644;DHT22;1838;50.742;7.158;2023-07-22T14:56:29;30.60;42.00
3644;DHT22;1838;50.742;7.158;2023-07-22T14:58:55;30.70;42.60
3644;DHT22;1838;50.742;7.158;2023-07-22T15:01:21;30.50;42.10
3644;DHT22;1838;50.742;7.158;2023-07-22T15:03:47;30.60;42.60
3644;DHT22;1838;50.742;7.158;2023-07-22T15:06:12;30.60;42.60
3644;DHT22;1838;50.742;7.158;2023-07-22T15:08:38;30.70;43.00
3644;DHT22;1838;50.742;7.158;2023-07-22T15:11:03;30.80;42.70
3644;DHT22;1838;50.742;7.158;2023-07-22T15:13:30;30.80;43.00
3644;DHT22;1838;50.742;7.158;2023-07-22T15:15:55;30.90;42.90
3644;DHT22;1838;50.742;7.158;2023-07-22T15:18:22;30.80;43.00
3644;DHT22;1838;50.742;7.158;2023-07-22T15:20:50;30.40;42.80
3644;DHT22;1838;50.742;7.158;2023-07-22T15:23:16;30.60;43.80
3644;DHT22;1838;50.742;7.158;2023-07-22T15:25:41;30.70;43.00
3644;DHT22;1838;50.742;7.158;2023-07-22T15:28:07;30.70;42.80
3644;DHT22;1838;50.742;7.158;2023-07-22T15:30:32;30.70;43.00
3644;DHT22;1838;50.742;7.158;2023-07-22T15:32:57;30.70;42.60
3644;DHT22;1838;50.742;7.158;2023-07-22T15:35:23;30.70;43.00
3644;DHT22;1838;50.742;7.158;2023-07-22T15:37:48;30.70;42.90
3644;DHT22;1838;50.742;7.158;2023-07-22T15:40:14;30.60;44.10
3644;DHT22;1838;50.742;7.158;2023-07-22T15:42:40;30.70;43.60
3644;DHT22;1838;50.742;7.158;2023-07-22T15:45:05;30.70;43.40
3644;DHT22;1838;50.742;7.158;2023-07-22T15:47:31;30.70;43.90
3644;DHT22;1838;50.742;7.158;2023-07-22T15:49:56;30.60;43.40
3644;DHT22;1838;50.742;7.158;2023-07-22T15:52:22;30.50;43.60
3644;DHT22;1838;50.742;7.158;2023-07-22T15:54:49;30.40;43.70
3644;DHT22;1838;50.742;7.158;2023-07-22T15:57:16;30.30;43.80
3644;DHT22;1838;50.742;7.158;2023-07-22T15:59:41;29.90;44.20
3644;DHT22;1838;50.742;7.158;2023-07-22T16:02:07;29.80;44.90
3644;DHT22;1838;50.742;7.158;2023-07-22T16:04:33;29.70;45.20
3644;DHT22;1838;50.742;7.158;2023-07-22T16:06:58;29.70;45.20